Bellingham, WA (98225)

4:53 PM PDT on September 02, 2015 (GMT -0700)
Cedar Ridge/Puget | | Change Station
CLOSE
Current Station
Personal Weather Station
Location: Bellingham, WA
Elevation: 292 ft
Nearby Weather Stations

Elev 292 ft 48.74 °N, 122.46 °W | Updated 14 minutes ago

Mostly Cloudy
Mostly Cloudy
55.9 °F
Feels Like 55.9 °F
N
0.0
Wind Variable Wind from NW

Today
High -- | Low -- °F
--% Chance of Precip.
Yesterday
High -- | Low -- °F
Precip. -- in
6:28 AM 7:50 PM
Waning Gibbous, 76% visible
Pressure 29.95 in
Visibility 10.0 miles
Clouds Few 700 ft
Scattered Clouds 3000 ft
Mostly Cloudy 4100 ft
Dew Point 52 °F
Humidity 85%
Rainfall 0.44 in
Snow Depth Not available.
UV 2 out of 12
Pollen .50 out of 12
Air Quality Not available.
Flu Activity Not available.
METAR KBLI 022253Z 02003KT 10SM FEW007 SCT030 BKN041 12/11 A2992 RMK AO2 RAB15E53 SLP140 P0010 T01220106
Pressure 29.95 in
Visibility 10.0 miles
Clouds Few 700 ft
Scattered Clouds 3000 ft
Mostly Cloudy 4100 ft
Dew Point 52 °F
Humidity 85%
Rainfall 0.44 in
Snow Depth Not available.
UV 2 out of 12
Pollen .50 out of 12
Air Quality Not available.
Flu Activity Not available.
METAR KBLI 022253Z 02003KT 10SM FEW007 SCT030 BKN041 12/11 A2992 RMK AO2 RAB15E53 SLP140 P0010 T01220106

10-Day Weather Forecast

×

Almanac

Astronomy

Sep. 02, 2015 Rise Set
Actual Time
Civil Twilight
Nautical Twilight
Astronomical Twilight
Moon
Length of Visible Light
Length of Day
Tomorrow will be .
, % of the Moon is Illuminated

Today's Extremes

State Highs State Lows

Community

WunderPhotos

Upload Photos

1,851,841 photos uploaded!

WunderBlogs® & News

Nearby

Air Quality

  Air Quality AQ Index Pollutant
Not available.

Snow Depth

Station Depth Elevation

Earthquake Activity

City Distance Mag. Time & Date
Minimum magnitude displayed is 2.5.

Coastal Water Temperatures

Place Temperature

Stations

Nearby Weather Stations

Station Location Temp. Windchill Dew Point Humidity Wind Precip. Elev Updated Type